Time,TemperatureF,DewpointF,PressureIn,WindDirection,WindDirectionDegrees,WindSpeedMPH,WindSpeedGustMPH,Humidity,HourlyPrecipIn,Conditions,Clouds,dailyrainin,SoftwareType,DateUTC
2013-08-16 00:01:00,53.2,44.5,29.56,NNE,19,0.0,0.0,72,0.00,,---,0.00,VWS V13.00,2013-08-16 08:01:00,
2013-08-16 00:06:00,53.2,44.5,29.56,NNE,19,0.0,0.0,72,0.00,,---,0.00,VWS V13.00,2013-08-16 08:06:00,
2013-08-16 00:11:00,53.2,44.5,29.56,NNE,19,0.0,0.0,72,0.00,,---,0.00,VWS V13.00,2013-08-16 08:11:00,
2013-08-16 00:16:00,53.2,44.5,29.56,NNE,19,0.0,0.0,72,0.00,,---,0.00,VWS V13.00,2013-08-16 08:16:00,
2013-08-16 00:21:00,53.2,44.5,29.53,NNE,19,0.0,0.0,72,0.00,,---,0.00,VWS V13.00,2013-08-16 08:21:00,
2013-08-16 00:26:00,53.2,44.8,29.53,NNE,19,0.0,0.0,73,0.00,,---,0.00,VWS V13.00,2013-08-16 08:26:00,
2013-08-16 00:30:00,53.2,44.8,29.53,NNE,19,0.0,0.0,73,0.00,,---,0.00,VWS V13.00,2013-08-16 08:30:00,
2013-08-16 00:35:00,53.2,44.8,29.53,NNE,19,0.0,0.0,73,0.00,,---,0.00,VWS V13.00,2013-08-16 08:35:00,
2013-08-16 00:40:00,53.2,44.8,29.56,NNE,19,0.0,0.0,73,0.00,,---,0.00,VWS V13.00,2013-08-16 08:40:00,
2013-08-16 00:45:00,53.2,44.8,29.56,NNE,19,0.0,0.0,73,0.00,,---,0.00,VWS V13.00,2013-08-16 08:45:00,
2013-08-16 00:50:00,53.2,44.8,29.56,WNW,303,0.0,0.0,73,0.00,,---,0.00,VWS V13.00,2013-08-16 08:50:00,
2013-08-16 00:55:00,53.2,44.8,29.56,West,277,0.0,0.0,73,0.00,,---,0.00,VWS V13.00,2013-08-16 08:55:00,
2013-08-16 01:00:00,53.1,44.7,29.56,WSW,243,0.0,0.0,73,0.00,,---,0.00,VWS V13.00,2013-08-16 09:00:00,
2013-08-16 01:05:00,53.1,44.7,29.56,WSW,243,0.0,0.0,73,0.00,,---,0.00,VWS V13.00,2013-08-16 09:05:00,
2013-08-16 01:10:00,52.7,44.3,29.56,WSW,243,0.0,0.0,73,0.00,,---,0.00,VWS V13.00,2013-08-16 09:10:00,
2013-08-16 01:15:00,52.7,44.3,29.56,WSW,243,0.0,0.0,73,0.00,,---,0.00,VWS V13.00,2013-08-16 09:15:00,
2013-08-16 01:20:00,52.5,43.8,29.53,WSW,243,0.0,0.0,72,0.00,,---,0.00,VWS V13.00,2013-08-16 09:20:00,
2013-08-16 01:25:00,52.5,43.8,29.53,WSW,243,0.0,0.0,72,0.00,,---,0.00,VWS V13.00,2013-08-16 09:25:00,
2013-08-16 01:30:00,52.5,43.8,29.53,WSW,243,0.0,0.0,72,0.00,,---,0.00,VWS V13.00,2013-08-16 09:30:00,
2013-08-16 01:35:00,52.3,43.6,29.56,WSW,243,0.0,0.0,72,0.00,,---,0.00,VWS V13.00,2013-08-16 09:35:00,
2013-08-16 01:40:00,52.3,43.6,29.56,WSW,243,0.0,0.0,72,0.00,,---,0.00,VWS V13.00,2013-08-16 09:40:00,
2013-08-16 01:45:00,52.3,43.6,29.56,WSW,243,0.0,0.0,72,0.00,,---,0.00,VWS V13.00,2013-08-16 09:45:00,
2013-08-16 01:50:00,52.3,43.6,29.53,WSW,243,0.0,0.0,72,0.00,,---,0.00,VWS V13.00,2013-08-16 09:50:00,
2013-08-16 01:55:00,52.3,43.6,29.53,WSW,243,0.0,0.0,72,0.00,,---,0.00,VWS V13.00,2013-08-16 09:55:00,
2013-08-16 02:00:00,52.3,43.6,29.53,WSW,243,0.0,0.0,72,0.00,,---,0.00,VWS V13.00,2013-08-16 10:00:00,
2013-08-16 02:05:00,52.3,43.6,29.53,WSW,243,0.0,0.0,72,0.00,,---,0.00,VWS V13.00,2013-08-16 10:05:00,
2013-08-16 02:10:00,52.3,43.6,29.53,WSW,243,0.0,0.0,72,0.00,,---,0.00,VWS V13.00,2013-08-16 10:10:00,
2013-08-16 02:15:00,52.3,43.6,29.53,WSW,243,0.0,0.0,72,0.00,,---,0.00,VWS V13.00,2013-08-16 10:15:00,
2013-08-16 02:20:00,52.0,43.2,29.53,WSW,243,0.0,0.0,72,0.00,,---,0.00,VWS V13.00,2013-08-16 10:20:00,
2013-08-16 02:25:00,52.0,43.2,29.53,WSW,243,0.0,0.0,72,0.00,,---,0.00,VWS V13.00,2013-08-16 10:25:00,
2013-08-16 02:30:00,52.0,43.2,29.53,WSW,243,0.0,0.0,72,0.00,,---,0.00,VWS V13.00,2013-08-16 10:30:00,
2013-08-16 02:35:00,52.0,43.2,29.53,WSW,243,0.0,0.0,72,0.00,,---,0.00,VWS V13.00,2013-08-16 10:35:00,
2013-08-16 02:40:00,52.0,43.2,29.53,WSW,243,0.0,0.0,72,0.00,,---,0.00,VWS V13.00,2013-08-16 10:40:00,
2013-08-16 02:45:00,52.2,43.4,29.53,WSW,243,0.0,0.0,72,0.00,,---,0.00,VWS V13.00,2013-08-16 10:45:00,
2013-08-16 02:50:00,52.2,43.4,29.53,WSW,243,0.0,0.0,72,0.00,,---,0.00,VWS V13.00,2013-08-16 10:50:00,
2013-08-16 02:55:00,52.0,43.2,29.53,WSW,243,0.0,0.0,72,0.00,,---,0.00,VWS V13.00,2013-08-16 10:55:00,
2013-08-16 03:00:00,52.0,43.2,29.53,WSW,243,0.0,0.0,72,0.00,,---,0.00,VWS V13.00,2013-08-16 11:00:00,
2013-08-16 03:05:00,52.0,43.6,29.53,WSW,243,0.0,0.0,73,0.00,,---,0.00,VWS V13.00,2013-08-16 11:05:00,
2013-08-16 03:10:00,52.0,43.6,29.53,WSW,243,0.0,0.0,73,0.00,,---,0.00,VWS V13.00,2013-08-16 11:10:00,
2013-08-16 03:15:00,52.0,43.6,29.53,WSW,243,0.0,0.0,73,0.00,,---,0.00,VWS V13.00,2013-08-16 11:15:00,
2013-08-16 03:20:00,51.6,43.3,29.53,WSW,243,0.0,0.0,73,0.00,,---,0.00,VWS V13.00,2013-08-16 11:20:00,
2013-08-16 03:25:00,51.6,43.3,29.53,WSW,243,0.0,0.0,73,0.04,,---,0.04,VWS V13.00,2013-08-16 11:25:00,
2013-08-16 03:30:00,51.6,43.3,29.53,WSW,243,0.0,0.0,73,0.04,,---,0.04,VWS V13.00,2013-08-16 11:30:00,
2013-08-16 03:35:00,51.6,43.3,29.50,WSW,243,0.0,0.0,73,0.04,,---,0.04,VWS V13.00,2013-08-16 11:35:00,
2013-08-16 03:40:00,51.6,43.6,29.50,WSW,243,0.0,0.0,74,0.04,,---,0.04,VWS V13.00,2013-08-16 11:40:00,
2013-08-16 03:45:00,51.6,43.6,29.50,WSW,243,0.0,0.0,74,0.04,,---,0.04,VWS V13.00,2013-08-16 11:45:00,
2013-08-16 03:50:00,51.4,43.4,29.50,WSW,243,0.0,0.0,74,0.04,,---,0.04,VWS V13.00,2013-08-16 11:50:00,
2013-08-16 03:55:00,51.4,43.4,29.50,WSW,243,0.0,0.0,74,0.04,,---,0.04,VWS V13.00,2013-08-16 11:55:00,
2013-08-16 04:00:00,51.4,43.4,29.50,WSW,243,0.0,0.0,74,0.04,,---,0.04,VWS V13.00,2013-08-16 12:00:00,
2013-08-16 04:05:00,51.4,43.4,29.50,WSW,243,0.0,0.0,74,0.04,,---,0.04,VWS V13.00,2013-08-16 12:05:00,
2013-08-16 04:10:00,51.4,43.4,29.50,WSW,243,0.0,0.0,74,0.04,,---,0.04,VWS V13.00,2013-08-16 12:10:00,
2013-08-16 04:15:00,51.4,43.8,29.50,WSW,243,0.0,0.0,75,0.04,,---,0.04,VWS V13.00,2013-08-16 12:15:00,
2013-08-16 04:20:00,51.4,43.8,29.50,WSW,243,0.0,0.0,75,0.08,,---,0.08,VWS V13.00,2013-08-16 12:20:00,
2013-08-16 04:25:00,51.3,43.6,29.50,WSW,243,0.0,0.0,75,0.08,,---,0.08,VWS V13.00,2013-08-16 12:25:00,
2013-08-16 04:30:00,51.3,43.6,29.50,WSW,243,0.0,0.0,75,0.08,,---,0.08,VWS V13.00,2013-08-16 12:30:00,
2013-08-16 04:35:00,51.3,43.6,29.50,WSW,243,0.0,0.0,75,0.08,,---,0.08,VWS V13.00,2013-08-16 12:35:00,
2013-08-16 04:40:00,51.1,43.4,29.50,WSW,243,0.0,0.0,75,0.08,,---,0.08,VWS V13.00,2013-08-16 12:40:00,
2013-08-16 04:45:00,51.1,43.4,29.50,WSW,243,0.0,0.0,75,0.04,,---,0.08,VWS V13.00,2013-08-16 12:45:00,
2013-08-16 04:50:00,51.1,43.8,29.50,WSW,243,0.0,0.0,76,0.04,,---,0.08,VWS V13.00,2013-08-16 12:50:00,
2013-08-16 04:55:00,51.1,43.8,29.50,WSW,243,0.0,0.0,76,0.04,,---,0.08,VWS V13.00,2013-08-16 12:55:00,
2013-08-16 05:00:00,51.1,43.8,29.50,WSW,243,0.0,0.0,76,0.04,,---,0.08,VWS V13.00,2013-08-16 13:00:00,
2013-08-16 05:05:00,51.1,43.8,29.50,WSW,243,0.0,0.0,76,0.04,,---,0.08,VWS V13.00,2013-08-16 13:05:00,
2013-08-16 05:10:00,51.1,43.8,29.50,WSW,243,0.0,0.0,76,0.04,,---,0.08,VWS V13.00,2013-08-16 13:10:00,
2013-08-16 05:15:00,51.1,43.8,29.50,WSW,243,0.0,0.0,76,0.04,,---,0.08,VWS V13.00,2013-08-16 13:15:00,
2013-08-16 05:20:00,51.1,43.8,29.50,WSW,243,0.0,0.0,76,0.04,,---,0.08,VWS V13.00,2013-08-16 13:20:00,
2013-08-16 05:25:00,51.1,44.1,29.50,WSW,243,0.0,0.0,77,0.00,,---,0.08,VWS V13.00,2013-08-16 13:25:00,
2013-08-16 05:30:00,50.9,44.0,29.50,WSW,243,0.0,0.0,77,0.00,,---,0.08,VWS V13.00,2013-08-16 13:30:00,
2013-08-16 05:35:00,50.9,44.0,29.47,WSW,243,0.0,0.0,77,0.00,,---,0.08,VWS V13.00,2013-08-16 13:35:00,
2013-08-16 05:40:00,50.9,44.0,29.47,WSW,243,0.0,0.0,77,0.00,,---,0.08,VWS V13.00,2013-08-16 13:40:00,
2013-08-16 05:45:00,50.9,44.3,29.47,WSW,243,0.0,0.0,78,0.04,,---,0.12,VWS V13.00,2013-08-16 13:45:00,
2013-08-16 05:50:00,50.9,44.3,29.47,WSW,243,0.0,0.0,78,0.04,,---,0.12,VWS V13.00,2013-08-16 13:50:00,
2013-08-16 05:55:00,50.9,44.3,29.47,ESE,108,0.0,0.0,78,0.04,,---,0.12,VWS V13.00,2013-08-16 13:55:00,
2013-08-16 06:00:00,50.9,44.3,29.47,ESE,113,0.0,0.0,78,0.04,,---,0.12,VWS V13.00,2013-08-16 14:00:00,
2013-08-16 06:05:00,50.9,44.6,29.47,NE,39,0.0,0.0,79,0.04,,---,0.12,VWS V13.00,2013-08-16 14:05:00,
2013-08-16 06:10:00,50.7,44.8,29.47,ESE,103,0.0,0.0,80,0.04,,---,0.12,VWS V13.00,2013-08-16 14:10:00,
2013-08-16 06:15:00,50.7,44.8,29.47,East,101,0.0,0.0,80,0.04,,---,0.12,VWS V13.00,2013-08-16 14:15:00,
2013-08-16 06:20:00,50.7,44.8,29.47,NE,44,0.0,6.3,80,0.04,,---,0.12,VWS V13.00,2013-08-16 14:20:00,
2013-08-16 06:25:00,50.7,45.1,29.47,ESE,120,0.0,6.3,81,0.04,,---,0.12,VWS V13.00,2013-08-16 14:25:00,
2013-08-16 06:30:00,50.7,45.1,29.47,ESE,105,0.0,6.3,81,0.04,,---,0.12,VWS V13.00,2013-08-16 14:30:00,
2013-08-16 06:35:00,50.9,45.6,29.47,SE,124,0.0,6.3,82,0.04,,---,0.12,VWS V13.00,2013-08-16 14:35:00,
2013-08-16 06:40:00,50.7,45.8,29.47,East,92,0.0,0.0,83,0.04,,---,0.12,VWS V13.00,2013-08-16 14:40:00,
2013-08-16 06:45:00,50.7,45.8,29.47,East,92,0.0,0.0,83,0.08,,---,0.16,VWS V13.00,2013-08-16 14:45:00,
2013-08-16 06:50:00,50.7,46.1,29.47,East,96,0.0,3.6,84,0.08,,---,0.16,VWS V13.00,2013-08-16 14:50:00,
2013-08-16 06:55:00,50.5,45.9,29.47,SE,128,3.6,6.7,84,0.08,,---,0.16,VWS V13.00,2013-08-16 14:55:00,
2013-08-16 07:00:00,50.5,45.9,29.47,East,82,0.0,0.0,84,0.08,,---,0.16,VWS V13.00,2013-08-16 15:00:00,
2013-08-16 07:05:00,50.7,46.4,29.47,East,96,4.0,5.4,85,0.04,,---,0.16,VWS V13.00,2013-08-16 15:05:00,
2013-08-16 07:10:00,50.7,46.4,29.47,ESE,103,0.0,5.4,85,0.04,,---,0.16,VWS V13.00,2013-08-16 15:10:00,
2013-08-16 07:15:00,50.5,46.2,29.47,East,97,0.0,5.4,85,0.04,,---,0.16,VWS V13.00,2013-08-16 15:15:00,
2013-08-16 07:20:00,50.9,46.6,29.47,East,94,0.0,0.0,85,0.04,,---,0.16,VWS V13.00,2013-08-16 15:20:00,
2013-08-16 07:25:00,50.9,46.6,29.47,NNE,21,0.0,0.0,85,0.04,,---,0.16,VWS V13.00,2013-08-16 15:25:00,
2013-08-16 07:30:00,51.3,46.9,29.47,ENE,72,0.0,0.0,85,0.04,,---,0.16,VWS V13.00,2013-08-16 15:30:00,
2013-08-16 07:35:00,51.4,47.1,29.44,ENE,68,0.0,0.0,85,0.04,,---,0.16,VWS V13.00,2013-08-16 15:35:00,
2013-08-16 07:40:00,51.4,47.1,29.44,NE,34,0.0,0.0,85,0.04,,---,0.16,VWS V13.00,2013-08-16 15:40:00,
2013-08-16 07:45:00,51.6,47.6,29.44,NE,36,0.0,0.0,86,0.04,,---,0.16,VWS V13.00,2013-08-16 15:45:00,
2013-08-16 07:50:00,51.6,47.6,29.44,ENE,60,0.0,0.0,86,0.04,,---,0.16,VWS V13.00,2013-08-16 15:50:00,
2013-08-16 07:55:00,51.8,47.4,29.44,NNE,26,0.0,0.0,85,0.04,,---,0.16,VWS V13.00,2013-08-16 15:55:00,
2013-08-16 08:00:00,51.8,47.4,29.44,NNE,31,0.0,0.0,85,0.04,,---,0.16,VWS V13.00,2013-08-16 16:00:00,
2013-08-16 08:05:00,52.0,47.9,29.44,NNE,31,0.0,0.0,86,0.00,,---,0.16,VWS V13.00,2013-08-16 16:05:00,
2013-08-16 08:09:00,52.2,48.1,29.44,NE,46,0.0,0.0,86,0.00,,---,0.16,VWS V13.00,2013-08-16 16:09:00,
2013-08-16 08:14:00,52.2,48.1,29.44,NNE,21,0.0,0.0,86,0.00,,---,0.16,VWS V13.00,2013-08-16 16:14:00,
2013-08-16 08:19:00,52.3,48.3,29.44,East,83,0.0,0.0,86,0.00,,---,0.16,VWS V13.00,2013-08-16 16:19:00,
2013-08-16 08:24:00,52.3,48.3,29.44,NE,51,0.0,0.0,86,0.00,,---,0.16,VWS V13.00,2013-08-16 16:24:00,
2013-08-16 08:29:00,52.3,48.3,29.44,NNE,17,0.0,0.0,86,0.00,,---,0.16,VWS V13.00,2013-08-16 16:29:00,
2013-08-16 08:34:00,52.3,48.3,29.44,NE,40,0.0,0.0,86,0.00,,---,0.20,VWS V13.00,2013-08-16 16:34:00,
2013-08-16 08:39:00,52.5,48.8,29.44,North,357,0.0,0.0,87,0.04,,---,0.20,VWS V13.00,2013-08-16 16:39:00,
2013-08-16 08:44:00,52.7,49.0,29.44,NE,39,0.0,0.0,87,0.04,,---,0.20,VWS V13.00,2013-08-16 16:44:00,
2013-08-16 08:49:00,52.7,49.0,29.44,NE,52,0.0,0.0,87,0.04,,---,0.20,VWS V13.00,2013-08-16 16:49:00,
2013-08-16 08:54:00,52.7,49.0,29.44,NNE,32,4.0,4.0,87,0.04,,---,0.20,VWS V13.00,2013-08-16 16:54:00,
2013-08-16 08:59:00,52.7,49.0,29.44,NNW,348,0.0,4.0,87,0.04,,---,0.20,VWS V13.00,2013-08-16 16:59:00,
2013-08-16 09:04:00,52.9,49.4,29.44,NE,38,0.0,0.0,88,0.04,,---,0.20,VWS V13.00,2013-08-16 17:04:00,
2013-08-16 09:09:00,52.9,49.4,29.44,NE,38,0.0,0.0,88,0.04,,---,0.20,VWS V13.00,2013-08-16 17:09:00,
2013-08-16 09:14:00,52.9,49.4,29.44,North,5,0.0,0.0,88,0.04,,---,0.20,VWS V13.00,2013-08-16 17:14:00,
2013-08-16 09:19:00,52.9,49.4,29.44,NNE,22,0.0,0.0,88,0.04,,---,0.20,VWS V13.00,2013-08-16 17:19:00,
2013-08-16 09:24:00,52.9,49.4,29.44,NE,41,0.0,0.0,88,0.04,,---,0.20,VWS V13.00,2013-08-16 17:24:00,
2013-08-16 09:29:00,52.9,49.4,29.44,NE,47,0.0,0.0,88,0.04,,---,0.24,VWS V13.00,2013-08-16 17:29:00,
2013-08-16 09:34:00,52.9,49.4,29.44,NE,36,0.0,0.0,88,0.08,,---,0.24,VWS V13.00,2013-08-16 17:34:00,
2013-08-16 09:39:00,52.9,49.7,29.44,North,0,0.0,0.0,89,0.08,,---,0.24,VWS V13.00,2013-08-16 17:39:00,
2013-08-16 09:44:00,52.9,49.7,29.44,NNE,20,0.0,0.0,89,0.04,,---,0.24,VWS V13.00,2013-08-16 17:44:00,
2013-08-16 09:49:00,52.9,49.7,29.44,NNE,20,0.0,0.0,89,0.04,,---,0.24,VWS V13.00,2013-08-16 17:49:00,
2013-08-16 09:54:00,52.9,49.7,29.44,NNE,18,0.0,0.0,89,0.04,,---,0.24,VWS V13.00,2013-08-16 17:54:00,
2013-08-16 09:59:00,53.1,49.9,29.44,NNE,18,0.0,0.0,89,0.04,,---,0.24,VWS V13.00,2013-08-16 17:59:00,
2013-08-16 10:04:00,53.1,49.9,29.44,ENE,73,0.0,0.0,89,0.08,,---,0.28,VWS V13.00,2013-08-16 18:04:00,
2013-08-16 10:09:00,53.1,49.9,29.44,North,4,0.0,0.0,89,0.08,,---,0.28,VWS V13.00,2013-08-16 18:09:00,
2013-08-16 10:14:00,53.1,49.9,29.44,NE,40,0.0,0.0,89,0.08,,---,0.28,VWS V13.00,2013-08-16 18:14:00,
2013-08-16 10:19:00,53.1,49.9,29.44,NE,40,0.0,0.0,89,0.08,,---,0.28,VWS V13.00,2013-08-16 18:19:00,
2013-08-16 10:24:00,53.2,50.1,29.41,NE,40,0.0,0.0,89,0.12,,---,0.31,VWS V13.00,2013-08-16 18:24:00,
2013-08-16 10:29:00,53.2,50.4,29.41,North,6,0.0,0.0,90,0.12,,---,0.31,VWS V13.00,2013-08-16 18:29:00,
2013-08-16 10:34:00,53.2,50.4,29.41,NE,37,0.0,0.0,90,0.12,,---,0.31,VWS V13.00,2013-08-16 18:34:00,
2013-08-16 10:39:00,53.2,50.4,29.41,NE,42,0.0,0.0,90,0.12,,---,0.31,VWS V13.00,2013-08-16 18:39:00,
2013-08-16 10:44:00,53.4,50.6,29.41,NNE,16,0.0,2.7,90,0.08,,---,0.31,VWS V13.00,2013-08-16 18:44:00,
2013-08-16 10:49:00,53.4,50.6,29.41,North,357,0.0,2.7,90,0.08,,---,0.31,VWS V13.00,2013-08-16 18:49:00,
2013-08-16 10:54:00,53.4,50.6,29.41,NNE,14,0.0,2.7,90,0.12,,---,0.35,VWS V13.00,2013-08-16 18:54:00,
2013-08-16 10:59:00,53.4,50.6,29.41,North,350,0.0,2.7,90,0.12,,---,0.35,VWS V13.00,2013-08-16 18:59:00,
2013-08-16 11:04:00,53.6,50.7,29.41,NNE,30,0.0,0.0,90,0.12,,---,0.35,VWS V13.00,2013-08-16 19:04:00,
2013-08-16 11:09:00,53.6,50.7,29.41,North,4,0.0,0.0,90,0.16,,---,0.39,VWS V13.00,2013-08-16 19:09:00,
2013-08-16 11:14:00,53.6,50.7,29.41,NNE,28,0.0,0.0,90,0.16,,---,0.39,VWS V13.00,2013-08-16 19:14:00,
2013-08-16 11:19:00,53.6,50.7,29.41,NNE,17,0.0,0.0,90,0.16,,---,0.39,VWS V13.00,2013-08-16 19:19:00,
2013-08-16 11:24:00,53.6,50.7,29.41,NNE,19,0.0,0.0,90,0.12,,---,0.39,VWS V13.00,2013-08-16 19:24:00,
2013-08-16 11:29:00,53.6,50.7,29.41,NE,38,0.0,0.0,90,0.12,,---,0.39,VWS V13.00,2013-08-16 19:29:00,
2013-08-16 11:34:00,53.8,50.9,29.41,North,0,0.0,0.0,90,0.12,,---,0.39,VWS V13.00,2013-08-16 19:34:00,
2013-08-16 11:39:00,53.8,50.9,29.41,North,11,0.0,4.0,90,0.12,,---,0.39,VWS V13.00,2013-08-16 19:39:00,
2013-08-16 11:44:00,53.8,51.2,29.41,NNE,27,0.0,0.0,91,0.12,,---,0.43,VWS V13.00,2013-08-16 19:44:00,
2013-08-16 11:49:00,53.8,51.2,29.41,NNE,31,0.0,0.0,91,0.12,,---,0.43,VWS V13.00,2013-08-16 19:49:00,
2013-08-16 11:54:00,53.8,51.2,29.41,NNE,25,0.0,0.0,91,0.12,,---,0.43,VWS V13.00,2013-08-16 19:54:00,
2013-08-16 11:59:00,54.0,51.4,29.41,NNE,12,4.0,4.0,91,0.12,,---,0.43,VWS V13.00,2013-08-16 19:59:00,
2013-08-16 12:04:00,54.0,51.4,29.41,NNE,12,4.0,4.0,91,0.08,,---,0.43,VWS V13.00,2013-08-16 20:04:00,
2013-08-16 12:09:00,54.1,51.6,29.41,North,357,0.0,4.0,91,0.08,,---,0.43,VWS V13.00,2013-08-16 20:09:00,
2013-08-16 12:14:00,54.1,51.6,29.41,NNE,16,0.0,4.0,91,0.08,,---,0.43,VWS V13.00,2013-08-16 20:14:00,
2013-08-16 12:19:00,54.1,51.6,29.41,North,2,3.6,4.0,91,0.08,,---,0.43,VWS V13.00,2013-08-16 20:19:00,
2013-08-16 12:24:00,54.3,51.8,29.41,NNE,32,0.0,3.6,91,0.04,,---,0.43,VWS V13.00,2013-08-16 20:24:00,
2013-08-16 12:29:00,54.3,51.8,29.41,NNE,32,0.0,3.6,91,0.04,,---,0.43,VWS V13.00,2013-08-16 20:29:00,
2013-08-16 12:34:00,54.3,52.0,29.41,NNE,16,0.0,3.6,92,0.04,,---,0.43,VWS V13.00,2013-08-16 20:34:00,
2013-08-16 12:39:00,54.5,52.2,29.41,NNE,21,0.0,3.6,92,0.04,,---,0.43,VWS V13.00,2013-08-16 20:39:00,
2013-08-16 12:44:00,54.5,52.2,29.41,NNE,21,0.0,0.0,92,0.00,,---,0.43,VWS V13.00,2013-08-16 20:44:00,
2013-08-16 12:49:00,54.5,52.2,29.41,NNE,14,0.0,3.1,92,0.00,,---,0.43,VWS V13.00,2013-08-16 20:49:00,
2013-08-16 12:54:00,54.3,52.0,29.41,NNE,14,0.0,3.1,92,0.00,,---,0.43,VWS V13.00,2013-08-16 20:54:00,
2013-08-16 12:59:00,54.1,51.9,29.41,NNE,14,0.0,3.1,92,0.00,,---,0.43,VWS V13.00,2013-08-16 20:59:00,
2013-08-16 13:04:00,54.1,51.9,29.41,NE,46,0.0,0.0,92,0.00,,---,0.43,VWS V13.00,2013-08-16 21:04:00,
2013-08-16 13:09:00,54.1,51.9,29.41,NNE,22,0.0,0.0,92,0.00,,---,0.43,VWS V13.00,2013-08-16 21:09:00,
2013-08-16 13:14:00,54.1,51.9,29.41,NNW,343,0.0,0.0,92,0.00,,---,0.43,VWS V13.00,2013-08-16 21:14:00,
2013-08-16 13:19:00,54.1,51.9,29.38,NNW,343,0.0,0.0,92,0.00,,---,0.43,VWS V13.00,2013-08-16 21:19:00,
2013-08-16 13:24:00,54.1,51.9,29.38,NW,313,0.0,0.0,92,0.00,,---,0.43,VWS V13.00,2013-08-16 21:24:00,
2013-08-16 13:29:00,54.3,52.0,29.38,North,10,0.0,0.0,92,0.00,,---,0.43,VWS V13.00,2013-08-16 21:29:00,
2013-08-16 13:34:00,54.3,52.0,29.38,North,5,0.0,0.0,92,0.00,,---,0.43,VWS V13.00,2013-08-16 21:34:00,
2013-08-16 13:39:00,54.3,52.0,29.38,North,353,0.0,0.0,92,0.00,,---,0.43,VWS V13.00,2013-08-16 21:39:00,
2013-08-16 13:44:00,54.3,52.0,29.38,West,265,0.0,5.4,92,0.00,,---,0.43,VWS V13.00,2013-08-16 21:44:00,
2013-08-16 13:49:00,54.1,51.9,29.38,West,265,0.0,5.4,92,0.00,,---,0.43,VWS V13.00,2013-08-16 21:49:00,
2013-08-16 13:54:00,54.1,51.9,29.38,North,357,0.0,5.4,92,0.00,,---,0.43,VWS V13.00,2013-08-16 21:54:00,
2013-08-16 13:59:00,54.1,51.9,29.38,NNE,33,0.0,5.4,92,0.00,,---,0.43,VWS V13.00,2013-08-16 21:59:00,
2013-08-16 14:04:00,54.0,51.7,29.38,NNE,33,0.0,0.0,92,0.00,,---,0.43,VWS V13.00,2013-08-16 22:04:00,
2013-08-16 14:09:00,54.0,51.7,29.38,NNE,14,0.0,0.0,92,0.00,,---,0.43,VWS V13.00,2013-08-16 22:09:00,
2013-08-16 14:14:00,54.0,51.7,29.38,NNE,14,0.0,0.0,92,0.00,,---,0.43,VWS V13.00,2013-08-16 22:14:00,
2013-08-16 14:19:00,54.0,51.7,29.38,ENE,68,0.0,3.1,92,0.00,,---,0.43,VWS V13.00,2013-08-16 22:19:00,
2013-08-16 14:24:00,54.1,51.9,29.38,ENE,68,0.0,0.0,92,0.00,,---,0.43,VWS V13.00,2013-08-16 22:24:00,
2013-08-16 14:29:00,54.1,51.9,29.38,NNE,15,0.0,0.0,92,0.00,,---,0.43,VWS V13.00,2013-08-16 22:29:00,
2013-08-16 14:34:00,54.1,51.9,29.38,NNE,20,0.0,0.0,92,0.00,,---,0.43,VWS V13.00,2013-08-16 22:34:00,
2013-08-16 14:39:00,54.1,51.9,29.38,NNE,20,0.0,0.0,92,0.00,,---,0.43,VWS V13.00,2013-08-16 22:39:00,
2013-08-16 14:44:00,54.1,51.9,29.38,NNE,17,0.0,0.0,92,0.00,,---,0.43,VWS V13.00,2013-08-16 22:44:00,
2013-08-16 14:49:00,54.3,52.3,29.38,NW,326,3.6,3.6,93,0.00,,---,0.43,VWS V13.00,2013-08-16 22:49:00,
2013-08-16 14:54:00,54.3,52.0,29.38,NNE,32,0.0,3.6,92,0.00,,---,0.43,VWS V13.00,2013-08-16 22:54:00,
2013-08-16 14:59:00,54.3,52.0,29.38,NNW,334,0.0,3.6,92,0.00,,---,0.43,VWS V13.00,2013-08-16 22:59:00,
2013-08-16 15:04:00,54.3,52.0,29.38,NNE,20,0.0,0.0,92,0.00,,---,0.43,VWS V13.00,2013-08-16 23:04:00,
2013-08-16 15:09:00,54.1,51.9,29.38,NNE,28,0.0,0.0,92,0.00,,---,0.43,VWS V13.00,2013-08-16 23:09:00,
2013-08-16 15:14:00,54.3,52.0,29.38,NNE,16,0.0,0.0,92,0.00,,---,0.43,VWS V13.00,2013-08-16 23:14:00,
2013-08-16 15:19:00,54.1,51.9,29.35,ENE,57,0.0,0.0,92,0.00,,---,0.43,VWS V13.00,2013-08-16 23:19:00,
2013-08-16 15:24:00,54.1,51.9,29.35,NE,35,5.8,5.8,92,0.00,,---,0.43,VWS V13.00,2013-08-16 23:24:00,
2013-08-16 15:29:00,54.1,51.9,29.35,NNE,17,2.7,5.8,92,0.00,,---,0.43,VWS V13.00,2013-08-16 23:29:00,
2013-08-16 15:34:00,54.1,51.9,29.35,NNE,22,0.0,5.8,92,0.00,,---,0.43,VWS V13.00,2013-08-16 23:34:00,
2013-08-16 15:39:00,54.1,52.2,29.35,NNW,332,0.0,5.8,93,0.00,,---,0.43,VWS V13.00,2013-08-16 23:39:00,
2013-08-16 15:44:00,54.1,52.2,29.35,NE,42,0.0,0.0,93,0.00,,---,0.43,VWS V13.00,2013-08-16 23:44:00,
2013-08-16 15:49:00,54.3,52.3,29.35,North,11,0.0,0.0,93,0.00,,---,0.43,VWS V13.00,2013-08-16 23:49:00,
2013-08-16 15:54:00,54.5,52.5,29.35,NNE,24,0.0,2.7,93,0.00,,---,0.43,VWS V13.00,2013-08-16 23:54:00,
2013-08-16 15:59:00,54.5,52.5,29.35,NNE,24,0.0,2.7,93,0.00,,---,0.43,VWS V13.00,2013-08-16 23:59:00,
2013-08-16 16:04:00,54.5,52.5,29.35,NNW,346,0.0,0.0,93,0.00,,---,0.43,VWS V13.00,2013-08-17 00:04:00,
2013-08-16 16:09:00,54.5,52.5,29.35,North,7,0.0,0.0,93,0.00,,---,0.43,VWS V13.00,2013-08-17 00:09:00,
2013-08-16 16:14:00,54.5,52.5,29.35,NNE,22,0.0,0.0,93,0.00,,---,0.43,VWS V13.00,2013-08-17 00:14:00,
2013-08-16 16:19:00,54.5,52.5,29.35,NE,34,0.0,0.0,93,0.00,,---,0.43,VWS V13.00,2013-08-17 00:19:00,
2013-08-16 16:24:00,54.5,52.5,29.35,NNE,29,0.0,0.0,93,0.00,,---,0.43,VWS V13.00,2013-08-17 00:24:00,
2013-08-16 16:29:00,54.5,52.5,29.35,NE,37,0.0,7.2,93,0.00,,---,0.43,VWS V13.00,2013-08-17 00:29:00,
2013-08-16 16:34:00,54.3,52.3,29.35,NNE,27,0.0,7.2,93,0.00,,---,0.43,VWS V13.00,2013-08-17 00:34:00,
2013-08-16 16:39:00,54.3,52.3,29.35,NNE,12,0.0,7.2,93,0.00,,---,0.43,VWS V13.00,2013-08-17 00:39:00,
2013-08-16 16:44:00,54.5,52.5,29.35,NE,41,0.0,0.0,93,0.00,,---,0.43,VWS V13.00,2013-08-17 00:44:00,
2013-08-16 16:49:00,54.3,52.3,29.35,NNW,332,0.0,0.0,93,0.00,,---,0.43,VWS V13.00,2013-08-17 00:49:00,
2013-08-16 16:53:00,54.5,52.5,29.35,NNE,33,0.0,0.0,93,0.00,,---,0.43,VWS V13.00,2013-08-17 00:53:00,
2013-08-16 16:58:00,54.5,52.5,29.35,North,357,0.0,0.0,93,0.00,,---,0.43,VWS V13.00,2013-08-17 00:58:00,
2013-08-16 17:03:00,54.5,52.5,29.35,NE,41,0.0,0.0,93,0.00,,---,0.43,VWS V13.00,2013-08-17 01:03:00,
2013-08-16 17:08:00,54.3,52.3,29.35,NE,41,0.0,0.0,93,0.00,,---,0.43,VWS V13.00,2013-08-17 01:08:00,
2013-08-16 17:13:00,54.3,52.3,29.35,NNE,23,0.0,0.0,93,0.00,,---,0.43,VWS V13.00,2013-08-17 01:13:00,
2013-08-16 17:18:00,54.3,52.3,29.35,ENE,61,0.0,0.0,93,0.00,,---,0.43,VWS V13.00,2013-08-17 01:18:00,
2013-08-16 17:23:00,54.3,52.3,29.35,NW,311,0.0,0.0,93,0.00,,---,0.43,VWS V13.00,2013-08-17 01:23:00,
2013-08-16 17:28:00,54.3,52.3,29.35,NNE,20,0.0,2.7,93,0.00,,---,0.43,VWS V13.00,2013-08-17 01:28:00,
2013-08-16 17:33:00,54.1,52.2,29.35,NNE,32,0.0,2.7,93,0.00,,---,0.43,VWS V13.00,2013-08-17 01:33:00,
2013-08-16 17:38:00,54.1,52.2,29.35,NNE,30,0.0,2.7,93,0.00,,---,0.43,VWS V13.00,2013-08-17 01:38:00,
2013-08-16 17:43:00,54.1,52.2,29.35,NNE,30,0.0,0.0,93,0.00,,---,0.43,VWS V13.00,2013-08-17 01:43:00,
2013-08-16 17:48:00,54.1,52.2,29.32,North,3,0.0,0.0,93,0.00,,---,0.43,VWS V13.00,2013-08-17 01:48:00,
2013-08-16 17:53:00,54.1,52.2,29.32,NNE,26,0.0,0.0,93,0.00,,---,0.43,VWS V13.00,2013-08-17 01:53:00,
2013-08-16 17:58:00,54.1,52.2,29.32,NNE,32,0.0,0.0,93,0.00,,---,0.43,VWS V13.00,2013-08-17 01:58:00,
2013-08-16 18:03:00,54.1,52.2,29.32,North,353,0.0,0.0,93,0.00,,---,0.43,VWS V13.00,2013-08-17 02:03:00,
2013-08-16 18:08:00,54.1,52.2,29.32,NW,321,0.0,0.0,93,0.00,,---,0.43,VWS V13.00,2013-08-17 02:08:00,
2013-08-16 18:13:00,54.0,52.0,29.32,NNE,18,0.0,0.0,93,0.00,,---,0.43,VWS V13.00,2013-08-17 02:13:00,
2013-08-16 18:18:00,54.1,52.2,29.32,NW,319,0.0,0.0,93,0.00,,---,0.43,VWS V13.00,2013-08-17 02:18:00,
2013-08-16 18:23:00,54.1,52.2,29.32,North,2,0.0,0.0,93,0.00,,---,0.43,VWS V13.00,2013-08-17 02:23:00,
2013-08-16 18:28:00,54.1,52.2,29.32,North,357,0.0,0.0,93,0.00,,---,0.43,VWS V13.00,2013-08-17 02:28:00,
2013-08-16 18:33:00,54.1,52.2,29.32,NNE,17,0.0,0.0,93,0.00,,---,0.43,VWS V13.00,2013-08-17 02:33:00,
2013-08-16 18:38:00,54.1,52.2,29.32,NNE,17,0.0,0.0,93,0.00,,---,0.43,VWS V13.00,2013-08-17 02:38:00,
2013-08-16 18:43:00,54.1,52.2,29.32,North,3,0.0,0.0,93,0.00,,---,0.43,VWS V13.00,2013-08-17 02:43:00,
2013-08-16 18:48:00,54.1,52.2,29.32,NW,319,0.0,0.0,93,0.00,,---,0.43,VWS V13.00,2013-08-17 02:48:00,
2013-08-16 18:53:00,54.0,52.0,29.32,NNE,25,0.0,0.0,93,0.00,,---,0.43,VWS V13.00,2013-08-17 02:53:00,
2013-08-16 18:58:00,54.0,52.0,29.32,NNE,18,0.0,0.0,93,0.00,,---,0.43,VWS V13.00,2013-08-17 02:58:00,
2013-08-16 19:03:00,54.0,52.0,29.32,NNE,18,0.0,0.0,93,0.00,,---,0.43,VWS V13.00,2013-08-17 03:03:00,
2013-08-16 19:08:00,54.0,52.0,29.32,NNE,24,0.0,0.0,93,0.00,,---,0.47,VWS V13.00,2013-08-17 03:08:00,
2013-08-16 19:13:00,54.0,52.0,29.32,NNE,12,0.0,0.0,93,0.04,,---,0.47,VWS V13.00,2013-08-17 03:13:00,
2013-08-16 19:18:00,54.0,52.0,29.32,NNE,12,0.0,0.0,93,0.04,,---,0.47,VWS V13.00,2013-08-17 03:18:00,
2013-08-16 19:23:00,54.0,52.0,29.32,NE,35,0.0,0.0,93,0.04,,---,0.47,VWS V13.00,2013-08-17 03:23:00,
2013-08-16 19:28:00,54.0,52.0,29.32,NE,40,0.0,0.0,93,0.04,,---,0.47,VWS V13.00,2013-08-17 03:28:00,
2013-08-16 19:33:00,54.0,52.0,29.32,North,4,0.0,0.0,93,0.04,,---,0.47,VWS V13.00,2013-08-17 03:33:00,
2013-08-16 19:38:00,54.0,52.0,29.32,NE,35,0.0,0.0,93,0.04,,---,0.47,VWS V13.00,2013-08-17 03:38:00,
2013-08-16 19:43:00,53.8,51.8,29.32,NNE,32,0.0,0.0,93,0.04,,---,0.47,VWS V13.00,2013-08-17 03:43:00,
2013-08-16 19:48:00,54.0,52.0,29.32,NE,55,0.0,0.0,93,0.04,,---,0.47,VWS V13.00,2013-08-17 03:48:00,
2013-08-16 19:53:00,54.0,52.0,29.32,NE,38,0.0,0.0,93,0.04,,---,0.47,VWS V13.00,2013-08-17 03:53:00,
2013-08-16 19:58:00,54.0,52.0,29.32,NE,38,0.0,0.0,93,0.04,,---,0.47,VWS V13.00,2013-08-17 03:58:00,
2013-08-16 20:01:00,54.0,52.0,29.32,North,357,0.0,0.0,93,0.04,,---,0.47,VWS V13.00,2013-08-17 04:01:00,
2013-08-16 20:06:00,54.0,52.0,29.29,NE,39,0.0,0.0,93,0.04,,---,0.47,VWS V13.00,2013-08-17 04:06:00,
2013-08-16 20:11:00,53.8,51.8,29.29,NNE,18,0.0,0.0,93,0.04,,---,0.47,VWS V13.00,2013-08-17 04:11:00,
2013-08-16 20:16:00,53.8,51.8,29.29,WNW,303,0.0,0.0,93,0.04,,---,0.47,VWS V13.00,2013-08-17 04:16:00,
2013-08-16 20:21:00,53.6,51.6,29.29,NE,46,0.0,0.0,93,0.00,,---,0.47,VWS V13.00,2013-08-17 04:21:00,
2013-08-16 20:26:00,53.8,51.8,29.29,NE,46,0.0,0.0,93,0.00,,---,0.47,VWS V13.00,2013-08-17 04:26:00,
2013-08-16 20:31:00,53.6,51.6,29.29,North,357,0.0,0.0,93,0.00,,---,0.47,VWS V13.00,2013-08-17 04:31:00,
2013-08-16 20:36:00,53.6,51.6,29.29,NNE,17,0.0,0.0,93,0.00,,---,0.47,VWS V13.00,2013-08-17 04:36:00,
2013-08-16 20:41:00,53.4,51.5,29.29,NNE,30,0.0,0.0,93,0.00,,---,0.47,VWS V13.00,2013-08-17 04:41:00,
2013-08-16 20:46:00,53.6,51.6,29.29,North,0,0.0,0.0,93,0.00,,---,0.47,VWS V13.00,2013-08-17 04:46:00,
2013-08-16 20:51:00,53.4,51.5,29.29,North,0,0.0,0.0,93,0.00,,---,0.47,VWS V13.00,2013-08-17 04:51:00,
2013-08-16 20:56:00,53.4,51.5,29.29,North,7,0.0,0.0,93,0.00,,---,0.47,VWS V13.00,2013-08-17 04:56:00,
2013-08-16 21:01:00,53.4,51.5,29.29,NNE,28,0.0,0.0,93,0.00,,---,0.47,VWS V13.00,2013-08-17 05:01:00,
2013-08-16 21:06:00,53.4,51.5,29.29,NW,320,0.0,0.0,93,0.00,,---,0.47,VWS V13.00,2013-08-17 05:06:00,
2013-08-16 21:11:00,53.4,51.5,29.29,NE,35,0.0,0.0,93,0.00,,---,0.47,VWS V13.00,2013-08-17 05:11:00,
2013-08-16 21:16:00,53.4,51.5,29.29,North,6,0.0,0.0,93,0.00,,---,0.47,VWS V13.00,2013-08-17 05:16:00,
2013-08-16 21:21:00,53.4,51.5,29.29,NNE,29,0.0,2.2,93,0.00,,---,0.47,VWS V13.00,2013-08-17 05:21:00,
2013-08-16 21:26:00,53.4,51.5,29.29,North,1,0.0,2.2,93,0.00,,---,0.47,VWS V13.00,2013-08-17 05:26:00,
2013-08-16 21:31:00,53.6,51.6,29.29,NNE,30,0.0,2.2,93,0.00,,---,0.47,VWS V13.00,2013-08-17 05:31:00,
2013-08-16 21:36:00,53.6,51.6,29.29,NE,39,0.0,2.2,93,0.00,,---,0.47,VWS V13.00,2013-08-17 05:36:00,
2013-08-16 21:41:00,53.4,51.5,29.29,NE,38,3.1,3.1,93,0.00,,---,0.47,VWS V13.00,2013-08-17 05:41:00,
2013-08-16 21:46:00,53.4,51.5,29.29,NNE,31,0.0,3.1,93,0.00,,---,0.47,VWS V13.00,2013-08-17 05:46:00,
2013-08-16 21:51:00,53.4,51.5,29.29,North,357,0.0,3.1,93,0.00,,---,0.47,VWS V13.00,2013-08-17 05:51:00,
2013-08-16 21:56:00,53.4,51.5,29.29,North,9,0.0,3.1,93,0.00,,---,0.47,VWS V13.00,2013-08-17 05:56:00,
2013-08-16 22:01:00,53.4,51.5,29.29,NNE,33,0.0,0.0,93,0.00,,---,0.47,VWS V13.00,2013-08-17 06:01:00,
2013-08-16 22:06:00,53.4,51.5,29.29,NNE,19,0.0,0.0,93,0.00,,---,0.47,VWS V13.00,2013-08-17 06:06:00,
2013-08-16 22:11:00,53.2,51.3,29.29,NE,39,0.0,5.4,93,0.00,,---,0.47,VWS V13.00,2013-08-17 06:11:00,
2013-08-16 22:16:00,53.2,51.3,29.29,NNE,32,0.0,5.4,93,0.00,,---,0.47,VWS V13.00,2013-08-17 06:16:00,
2013-08-16 22:21:00,53.2,51.3,29.29,NE,45,0.0,0.0,93,0.00,,---,0.47,VWS V13.00,2013-08-17 06:21:00,
2013-08-16 22:26:00,53.1,51.1,29.29,NE,38,0.0,0.0,93,0.00,,---,0.47,VWS V13.00,2013-08-17 06:26:00,
2013-08-16 22:31:00,53.1,51.1,29.29,NNE,28,0.0,0.0,93,0.00,,---,0.47,VWS V13.00,2013-08-17 06:31:00,
2013-08-16 22:36:00,53.1,51.1,29.29,NNE,25,0.0,0.0,93,0.00,,---,0.47,VWS V13.00,2013-08-17 06:36:00,
2013-08-16 22:41:00,53.1,51.1,29.29,NE,34,0.0,0.0,93,0.00,,---,0.47,VWS V13.00,2013-08-17 06:41:00,
2013-08-16 22:46:00,53.1,51.1,29.29,NNE,15,0.0,0.0,93,0.00,,---,0.47,VWS V13.00,2013-08-17 06:46:00,
2013-08-16 22:51:00,53.1,51.4,29.29,NNE,33,0.0,0.0,94,0.00,,---,0.47,VWS V13.00,2013-08-17 06:51:00,
2013-08-16 22:56:00,53.1,51.4,29.29,NNE,30,0.0,0.0,94,0.00,,---,0.47,VWS V13.00,2013-08-17 06:56:00,
2013-08-16 23:01:00,53.1,51.4,29.29,NE,35,0.0,0.0,94,0.00,,---,0.47,VWS V13.00,2013-08-17 07:01:00,
2013-08-16 23:06:00,53.1,51.4,29.29,NE,47,0.0,0.0,94,0.00,,---,0.47,VWS V13.00,2013-08-17 07:06:00,
2013-08-16 23:11:00,53.1,51.4,29.29,NNE,22,0.0,0.0,94,0.00,,---,0.47,VWS V13.00,2013-08-17 07:11:00,
2013-08-16 23:16:00,52.9,51.2,29.29,NNE,26,0.0,0.0,94,0.00,,---,0.47,VWS V13.00,2013-08-17 07:16:00,
2013-08-16 23:21:00,52.9,51.2,29.29,NNE,28,0.0,0.0,94,0.00,,---,0.47,VWS V13.00,2013-08-17 07:21:00,
2013-08-16 23:25:00,52.9,51.2,29.29,NNE,24,0.0,0.0,94,0.00,,---,0.47,VWS V13.00,2013-08-17 07:25:00,
2013-08-16 23:30:00,52.9,51.2,29.29,NE,35,0.0,0.0,94,0.00,,---,0.47,VWS V13.00,2013-08-17 07:30:00,
2013-08-16 23:35:00,52.9,51.2,29.29,NE,35,0.0,0.0,94,0.00,,---,0.47,VWS V13.00,2013-08-17 07:35:00,
2013-08-16 23:40:00,52.9,51.2,29.29,NE,34,0.0,0.0,94,0.00,,---,0.47,VWS V13.00,2013-08-17 07:40:00,
2013-08-16 23:45:00,52.9,51.2,29.29,NE,34,0.0,0.0,94,0.00,,---,0.47,VWS V13.00,2013-08-17 07:45:00,
2013-08-16 23:50:00,52.9,51.2,29.29,NE,39,0.0,0.0,94,0.00,,---,0.47,VWS V13.00,2013-08-17 07:50:00,
2013-08-16 23:55:00,53.1,51.4,29.29,NE,39,0.0,0.0,94,0.00,,---,0.47,VWS V13.00,2013-08-17 07:55:00,